sensor_id;sensor_type;location;lat;lon;timestamp;P1;P2;P0
69350;PMS7003;57106;51.446;-2.606;2023-12-22T00:00:26;1;1;
69350;PMS7003;57106;51.446;-2.606;2023-12-22T00:02:51;1;1;
69350;PMS7003;57106;51.446;-2.606;2023-12-22T00:05:12;3;1;
69350;PMS7003;57106;51.446;-2.606;2023-12-22T00:07:37;3;3;
69350;PMS7003;57106;51.446;-2.606;2023-12-22T00:10:03;1;1;
69350;PMS7003;57106;51.446;-2.606;2023-12-22T00:12:29;1;1;
69350;PMS7003;57106;51.446;-2.606;2023-12-22T00:14:54;2;2;
69350;PMS7003;57106;51.446;-2.606;2023-12-22T00:34:18;2;2;
69350;PMS7003;57106;51.446;-2.606;2023-12-22T00:36:44;2;1;
69350;PMS7003;57106;51.446;-2.606;2023-12-22T00:39:09;2;1;
69350;PMS7003;57106;51.446;-2.606;2023-12-22T00:41:35;4;3;
69350;PMS7003;57106;51.446;-2.606;2023-12-22T00:44:01;2;1;
69350;PMS7003;57106;51.446;-2.606;2023-12-22T00:46:29;3;2;
69350;PMS7003;57106;51.446;-2.606;2023-12-22T00:48:51;4;3;
69350;PMS7003;57106;51.446;-2.606;2023-12-22T00:51:17;2;2;
69350;PMS7003;57106;51.446;-2.606;2023-12-22T00:53:43;2;2;
69350;PMS7003;57106;51.446;-2.606;2023-12-22T00:56:08;3;2;
69350;PMS7003;57106;51.446;-2.606;2023-12-22T00:58:34;2;2;
69350;PMS7003;57106;51.446;-2.606;2023-12-22T01:01:00;3;2;
69350;PMS7003;57106;51.446;-2.606;2023-12-22T01:03:25;2;2;
69350;PMS7003;57106;51.446;-2.606;2023-12-22T01:05:50;5;1;
69350;PMS7003;57106;51.446;-2.606;2023-12-22T01:08:16;3;2;
69350;PMS7003;57106;51.446;-2.606;2023-12-22T01:10:41;2;2;
69350;PMS7003;57106;51.446;-2.606;2023-12-22T01:13:07;2;2;
69350;PMS7003;57106;51.446;-2.606;2023-12-22T01:15:32;1;1;
69350;PMS7003;57106;51.446;-2.606;2023-12-22T01:17:58;2;2;
69350;PMS7003;57106;51.446;-2.606;2023-12-22T01:20:23;2;2;
69350;PMS7003;57106;51.446;-2.606;2023-12-22T01:22:50;4;2;
69350;PMS7003;57106;51.446;-2.606;2023-12-22T01:25:15;2;1;
69350;PMS7003;57106;51.446;-2.606;2023-12-22T01:27:40;5;2;
69350;PMS7003;57106;51.446;-2.606;2023-12-22T01:30:06;2;2;
69350;PMS7003;57106;51.446;-2.606;2023-12-22T01:32:31;2;2;
69350;PMS7003;57106;51.446;-2.606;2023-12-22T01:54:21;4;2;
69350;PMS7003;57106;51.446;-2.606;2023-12-22T01:56:47;2;2;
69350;PMS7003;57106;51.446;-2.606;2023-12-22T01:59:12;2;2;
69350;PMS7003;57106;51.446;-2.606;2023-12-22T02:01:38;3;1;
69350;PMS7003;57106;51.446;-2.606;2023-12-22T02:04:05;3;1;
69350;PMS7003;57106;51.446;-2.606;2023-12-22T02:06:29;2;2;
69350;PMS7003;57106;51.446;-2.606;2023-12-22T02:08:54;3;2;
69350;PMS7003;57106;51.446;-2.606;2023-12-22T02:11:20;3;3;
69350;PMS7003;57106;51.446;-2.606;2023-12-22T02:13:46;2;2;
69350;PMS7003;57106;51.446;-2.606;2023-12-22T02:16:13;3;3;
69350;PMS7003;57106;51.446;-2.606;2023-12-22T02:18:37;3;0;
69350;PMS7003;57106;51.446;-2.606;2023-12-22T02:21:02;2;1;
69350;PMS7003;57106;51.446;-2.606;2023-12-22T02:23:28;3;2;
69350;PMS7003;57106;51.446;-2.606;2023-12-22T02:25:55;0;0;
69350;PMS7003;57106;51.446;-2.606;2023-12-22T02:28:19;0;0;
69350;PMS7003;57106;51.446;-2.606;2023-12-22T02:30:47;2;1;
69350;PMS7003;57106;51.446;-2.606;2023-12-22T02:33:10;2;1;
69350;PMS7003;57106;51.446;-2.606;2023-12-22T02:35:36;3;1;
69350;PMS7003;57106;51.446;-2.606;2023-12-22T02:38:01;0;0;
69350;PMS7003;57106;51.446;-2.606;2023-12-22T02:40:26;2;1;
69350;PMS7003;57106;51.446;-2.606;2023-12-22T02:42:52;2;0;
69350;PMS7003;57106;51.446;-2.606;2023-12-22T02:45:18;2;1;
69350;PMS7003;57106;51.446;-2.606;2023-12-22T02:47:43;2;1;
69350;PMS7003;57106;51.446;-2.606;2023-12-22T02:50:09;6;2;
69350;PMS7003;57106;51.446;-2.606;2023-12-22T03:28:57;3;1;
69350;PMS7003;57106;51.446;-2.606;2023-12-22T03:31:23;1;1;
69350;PMS7003;57106;51.446;-2.606;2023-12-22T03:33:48;2;1;
69350;PMS7003;57106;51.446;-2.606;2023-12-22T03:36:14;1;1;
69350;PMS7003;57106;51.446;-2.606;2023-12-22T03:38:39;3;2;
69350;PMS7003;57106;51.446;-2.606;2023-12-22T03:41:05;1;1;
69350;PMS7003;57106;51.446;-2.606;2023-12-22T03:43:31;1;1;
69350;PMS7003;57106;51.446;-2.606;2023-12-22T03:45:56;1;1;
69350;PMS7003;57106;51.446;-2.606;2023-12-22T03:48:21;3;1;
69350;PMS7003;57106;51.446;-2.606;2023-12-22T03:50:47;1;1;
69350;PMS7003;57106;51.446;-2.606;2023-12-22T03:53:12;0;0;
69350;PMS7003;57106;51.446;-2.606;2023-12-22T03:55:38;2;1;
69350;PMS7003;57106;51.446;-2.606;2023-12-22T03:58:04;4;2;
69350;PMS7003;57106;51.446;-2.606;2023-12-22T04:00:29;3;1;
69350;PMS7003;57106;51.446;-2.606;2023-12-22T04:02:55;0;0;
69350;PMS7003;57106;51.446;-2.606;2023-12-22T04:05:20;2;1;
69350;PMS7003;57106;51.446;-2.606;2023-12-22T04:15:07;0;0;
69350;PMS7003;57106;51.446;-2.606;2023-12-22T04:17:28;1;1;
69350;PMS7003;57106;51.446;-2.606;2023-12-22T04:19:53;1;1;
69350;PMS7003;57106;51.446;-2.606;2023-12-22T04:22:19;3;0;
69350;PMS7003;57106;51.446;-2.606;2023-12-22T04:24:44;1;1;
69350;PMS7003;57106;51.446;-2.606;2023-12-22T04:27:10;0;0;
69350;PMS7003;57106;51.446;-2.606;2023-12-22T04:29:35;0;0;
69350;PMS7003;57106;51.446;-2.606;2023-12-22T04:32:01;1;0;
69350;PMS7003;57106;51.446;-2.606;2023-12-22T04:34:26;0;0;
69350;PMS7003;57106;51.446;-2.606;2023-12-22T04:36:52;0;0;
69350;PMS7003;57106;51.446;-2.606;2023-12-22T04:39:17;0;0;
69350;PMS7003;57106;51.446;-2.606;2023-12-22T04:41:43;0;0;
69350;PMS7003;57106;51.446;-2.606;2023-12-22T04:44:09;1;1;
69350;PMS7003;57106;51.446;-2.606;2023-12-22T04:46:34;0;0;
69350;PMS7003;57106;51.446;-2.606;2023-12-22T04:49:00;0;0;
69350;PMS7003;57106;51.446;-2.606;2023-12-22T04:51:25;1;1;
69350;PMS7003;57106;51.446;-2.606;2023-12-22T04:53:51;2;1;
69350;PMS7003;57106;51.446;-2.606;2023-12-22T04:56:21;2;1;
69350;PMS7003;57106;51.446;-2.606;2023-12-22T04:58:42;1;1;
69350;PMS7003;57106;51.446;-2.606;2023-12-22T05:01:07;1;1;
69350;PMS7003;57106;51.446;-2.606;2023-12-22T05:03:33;3;1;
69350;PMS7003;57106;51.446;-2.606;2023-12-22T05:05:58;1;1;
69350;PMS7003;57106;51.446;-2.606;2023-12-22T05:08:24;2;0;
69350;PMS7003;57106;51.446;-2.606;2023-12-22T05:10:50;0;0;
69350;PMS7003;57106;51.446;-2.606;2023-12-22T05:13:15;1;1;
69350;PMS7003;57106;51.446;-2.606;2023-12-22T05:15:41;1;1;
69350;PMS7003;57106;51.446;-2.606;2023-12-22T05:18:06;2;1;
69350;PMS7003;57106;51.446;-2.606;2023-12-22T05:20:31;2;1;
69350;PMS7003;57106;51.446;-2.606;2023-12-22T05:22:57;1;1;
69350;PMS7003;57106;51.446;-2.606;2023-12-22T05:32:39;1;1;
69350;PMS7003;57106;51.446;-2.606;2023-12-22T05:35:05;1;1;
69350;PMS7003;57106;51.446;-2.606;2023-12-22T05:37:30;4;0;
69350;PMS7003;57106;51.446;-2.606;2023-12-22T05:39:56;1;0;
69350;PMS7003;57106;51.446;-2.606;2023-12-22T05:42:21;0;0;
69350;PMS7003;57106;51.446;-2.606;2023-12-22T05:44:47;0;0;
69350;PMS7003;57106;51.446;-2.606;2023-12-22T05:47:12;2;0;
69350;PMS7003;57106;51.446;-2.606;2023-12-22T05:49:39;0;0;
69350;PMS7003;57106;51.446;-2.606;2023-12-22T05:52:04;0;0;
69350;PMS7003;57106;51.446;-2.606;2023-12-22T05:54:29;2;1;
69350;PMS7003;57106;51.446;-2.606;2023-12-22T05:56:55;2;0;
69350;PMS7003;57106;51.446;-2.606;2023-12-22T05:59:20;4;2;
69350;PMS7003;57106;51.446;-2.606;2023-12-22T06:55:09;3;1;
69350;PMS7003;57106;51.446;-2.606;2023-12-22T06:59:59;3;1;
69350;PMS7003;57106;51.446;-2.606;2023-12-22T07:02:25;4;3;
69350;PMS7003;57106;51.446;-2.606;2023-12-22T07:07:16;3;2;
69350;PMS7003;57106;51.446;-2.606;2023-12-22T07:09:41;7;2;
69350;PMS7003;57106;51.446;-2.606;2023-12-22T07:12:07;2;2;
69350;PMS7003;57106;51.446;-2.606;2023-12-22T07:14:33;3;1;
69350;PMS7003;57106;51.446;-2.606;2023-12-22T07:16:58;2;1;
69350;PMS7003;57106;51.446;-2.606;2023-12-22T07:19:24;1;1;
69350;PMS7003;57106;51.446;-2.606;2023-12-22T07:21:49;3;2;
69350;PMS7003;57106;51.446;-2.606;2023-12-22T07:24:15;5;3;
69350;PMS7003;57106;51.446;-2.606;2023-12-22T07:26:43;3;3;
69350;PMS7003;57106;51.446;-2.606;2023-12-22T07:29:06;3;2;
69350;PMS7003;57106;51.446;-2.606;2023-12-22T07:31:31;3;3;
69350;PMS7003;57106;51.446;-2.606;2023-12-22T07:33:57;5;2;
69350;PMS7003;57106;51.446;-2.606;2023-12-22T07:36:23;4;2;
69350;PMS7003;57106;51.446;-2.606;2023-12-22T07:41:14;4;2;
69350;PMS7003;57106;51.446;-2.606;2023-12-22T07:43:40;5;2;
69350;PMS7003;57106;51.446;-2.606;2023-12-22T07:46:05;2;1;
69350;PMS7003;57106;51.446;-2.606;2023-12-22T07:48:31;4;2;
69350;PMS7003;57106;51.446;-2.606;2023-12-22T07:50:56;2;2;
69350;PMS7003;57106;51.446;-2.606;2023-12-22T07:53:22;2;2;
69350;PMS7003;57106;51.446;-2.606;2023-12-22T07:58:13;0;0;
69350;PMS7003;57106;51.446;-2.606;2023-12-22T08:00:38;5;3;
69350;PMS7003;57106;51.446;-2.606;2023-12-22T08:03:03;1;1;
69350;PMS7003;57106;51.446;-2.606;2023-12-22T08:05:29;2;2;
69350;PMS7003;57106;51.446;-2.606;2023-12-22T08:07:54;4;1;
69350;PMS7003;57106;51.446;-2.606;2023-12-22T08:10:20;1;1;
69350;PMS7003;57106;51.446;-2.606;2023-12-22T08:12:46;7;4;
69350;PMS7003;57106;51.446;-2.606;2023-12-22T08:15:11;4;3;
69350;PMS7003;57106;51.446;-2.606;2023-12-22T08:17:36;1;1;
69350;PMS7003;57106;51.446;-2.606;2023-12-22T08:20:02;3;2;
69350;PMS7003;57106;51.446;-2.606;2023-12-22T08:22:28;2;1;
69350;PMS7003;57106;51.446;-2.606;2023-12-22T08:24:53;4;1;
69350;PMS7003;57106;51.446;-2.606;2023-12-22T08:27:19;2;2;
69350;PMS7003;57106;51.446;-2.606;2023-12-22T08:29:44;3;1;
69350;PMS7003;57106;51.446;-2.606;2023-12-22T08:32:10;1;1;
69350;PMS7003;57106;51.446;-2.606;2023-12-22T08:34:35;3;1;
69350;PMS7003;57106;51.446;-2.606;2023-12-22T08:37:01;4;3;
69350;PMS7003;57106;51.446;-2.606;2023-12-22T08:39:27;5;2;
69350;PMS7003;57106;51.446;-2.606;2023-12-22T08:41:52;5;1;
69350;PMS7003;57106;51.446;-2.606;2023-12-22T08:44:17;3;2;
69350;PMS7003;57106;51.446;-2.606;2023-12-22T08:46:44;3;2;
69350;PMS7003;57106;51.446;-2.606;2023-12-22T08:49:14;2;2;
69350;PMS7003;57106;51.446;-2.606;2023-12-22T08:51:34;3;2;
69350;PMS7003;57106;51.446;-2.606;2023-12-22T08:54:00;6;3;
69350;PMS7003;57106;51.446;-2.606;2023-12-22T08:56:25;2;2;
69350;PMS7003;57106;51.446;-2.606;2023-12-22T08:58:51;3;2;
69350;PMS7003;57106;51.446;-2.606;2023-12-22T09:01:16;4;2;
69350;PMS7003;57106;51.446;-2.606;2023-12-22T09:03:42;2;2;
69350;PMS7003;57106;51.446;-2.606;2023-12-22T09:06:07;3;2;
69350;PMS7003;57106;51.446;-2.606;2023-12-22T09:08:33;3;1;
69350;PMS7003;57106;51.446;-2.606;2023-12-22T09:13:24;5;1;
69350;PMS7003;57106;51.446;-2.606;2023-12-22T09:15:50;2;2;
69350;PMS7003;57106;51.446;-2.606;2023-12-22T09:18:15;2;1;
69350;PMS7003;57106;51.446;-2.606;2023-12-22T09:20:41;1;1;
69350;PMS7003;57106;51.446;-2.606;2023-12-22T09:23:06;2;2;
69350;PMS7003;57106;51.446;-2.606;2023-12-22T09:25:33;5;2;
69350;PMS7003;57106;51.446;-2.606;2023-12-22T09:27:57;5;3;
69350;PMS7003;57106;51.446;-2.606;2023-12-22T09:30:23;2;2;
69350;PMS7003;57106;51.446;-2.606;2023-12-22T09:32:48;5;1;
69350;PMS7003;57106;51.446;-2.606;2023-12-22T09:35:14;2;1;
69350;PMS7003;57106;51.446;-2.606;2023-12-22T09:37:40;3;2;
69350;PMS7003;57106;51.446;-2.606;2023-12-22T09:40:06;4;2;
69350;PMS7003;57106;51.446;-2.606;2023-12-22T09:42:31;2;1;
69350;PMS7003;57106;51.446;-2.606;2023-12-22T09:44:56;2;2;
69350;PMS7003;57106;51.446;-2.606;2023-12-22T09:47:22;5;2;
69350;PMS7003;57106;51.446;-2.606;2023-12-22T09:49:47;2;1;
69350;PMS7003;57106;51.446;-2.606;2023-12-22T09:52:13;1;1;
69350;PMS7003;57106;51.446;-2.606;2023-12-22T09:54:38;2;1;
69350;PMS7003;57106;51.446;-2.606;2023-12-22T09:57:05;4;3;
69350;PMS7003;57106;51.446;-2.606;2023-12-22T09:59:29;6;1;
69350;PMS7003;57106;51.446;-2.606;2023-12-22T10:02:00;4;3;
69350;PMS7003;57106;51.446;-2.606;2023-12-22T10:04:20;4;2;
69350;PMS7003;57106;51.446;-2.606;2023-12-22T10:06:46;3;1;
69350;PMS7003;57106;51.446;-2.606;2023-12-22T10:09:11;2;2;
69350;PMS7003;57106;51.446;-2.606;2023-12-22T10:16:28;2;2;
69350;PMS7003;57106;51.446;-2.606;2023-12-22T10:21:19;4;1;
69350;PMS7003;57106;51.446;-2.606;2023-12-22T10:23:44;5;2;
69350;PMS7003;57106;51.446;-2.606;2023-12-22T10:26:10;3;3;
69350;PMS7003;57106;51.446;-2.606;2023-12-22T10:35:53;1;1;
69350;PMS7003;57106;51.446;-2.606;2023-12-22T10:38:18;2;2;
69350;PMS7003;57106;51.446;-2.606;2023-12-22T10:40:44;2;2;
69350;PMS7003;57106;51.446;-2.606;2023-12-22T10:43:09;2;2;
69350;PMS7003;57106;51.446;-2.606;2023-12-22T10:45:34;3;2;
69350;PMS7003;57106;51.446;-2.606;2023-12-22T10:48:00;3;3;
69350;PMS7003;57106;51.446;-2.606;2023-12-22T10:50:25;4;2;
69350;PMS7003;57106;51.446;-2.606;2023-12-22T10:52:51;3;1;
69350;PMS7003;57106;51.446;-2.606;2023-12-22T10:55:16;4;2;
69350;PMS7003;57106;51.446;-2.606;2023-12-22T10:57:42;6;1;
69350;PMS7003;57106;51.446;-2.606;2023-12-22T11:00:08;5;2;
69350;PMS7003;57106;51.446;-2.606;2023-12-22T11:02:33;2;2;
69350;PMS7003;57106;51.446;-2.606;2023-12-22T11:05:00;3;2;
69350;PMS7003;57106;51.446;-2.606;2023-12-22T11:07:24;3;1;
69350;PMS7003;57106;51.446;-2.606;2023-12-22T11:09:50;2;2;
69350;PMS7003;57106;51.446;-2.606;2023-12-22T11:12:15;3;1;
69350;PMS7003;57106;51.446;-2.606;2023-12-22T11:14:40;2;1;
69350;PMS7003;57106;51.446;-2.606;2023-12-22T11:17:06;4;2;
69350;PMS7003;57106;51.446;-2.606;2023-12-22T11:19:31;3;2;
69350;PMS7003;57106;51.446;-2.606;2023-12-22T11:21:57;2;2;
69350;PMS7003;57106;51.446;-2.606;2023-12-22T11:24:23;3;1;
69350;PMS7003;57106;51.446;-2.606;2023-12-22T11:26:48;3;3;
69350;PMS7003;57106;51.446;-2.606;2023-12-22T11:29:14;4;2;
69350;PMS7003;57106;51.446;-2.606;2023-12-22T11:31:39;4;3;
69350;PMS7003;57106;51.446;-2.606;2023-12-22T11:34:05;1;1;
69350;PMS7003;57106;51.446;-2.606;2023-12-22T11:36:31;4;2;
69350;PMS7003;57106;51.446;-2.606;2023-12-22T11:38:56;5;3;
69350;PMS7003;57106;51.446;-2.606;2023-12-22T11:41:22;0;0;
69350;PMS7003;57106;51.446;-2.606;2023-12-22T11:43:47;3;2;
69350;PMS7003;57106;51.446;-2.606;2023-12-22T11:46:12;5;2;
69350;PMS7003;57106;51.446;-2.606;2023-12-22T11:48:38;3;2;
69350;PMS7003;57106;51.446;-2.606;2023-12-22T11:53:30;7;3;
69350;PMS7003;57106;51.446;-2.606;2023-12-22T11:55:56;4;3;
69350;PMS7003;57106;51.446;-2.606;2023-12-22T12:00:46;3;2;
69350;PMS7003;57106;51.446;-2.606;2023-12-22T12:03:11;3;1;
69350;PMS7003;57106;51.446;-2.606;2023-12-22T12:05:37;5;2;
69350;PMS7003;57106;51.446;-2.606;2023-12-22T12:08:06;2;0;
69350;PMS7003;57106;51.446;-2.606;2023-12-22T12:17:43;2;1;
69350;PMS7003;57106;51.446;-2.606;2023-12-22T12:20:09;2;2;
69350;PMS7003;57106;51.446;-2.606;2023-12-22T12:22:34;1;1;
69350;PMS7003;57106;51.446;-2.606;2023-12-22T12:25:07;1;1;
69350;PMS7003;57106;51.446;-2.606;2023-12-22T12:27:25;4;2;
69350;PMS7003;57106;51.446;-2.606;2023-12-22T12:32:16;3;2;
69350;PMS7003;57106;51.446;-2.606;2023-12-22T12:34:42;2;1;
69350;PMS7003;57106;51.446;-2.606;2023-12-22T12:37:07;4;1;
69350;PMS7003;57106;51.446;-2.606;2023-12-22T12:39:34;2;1;
69350;PMS7003;57106;51.446;-2.606;2023-12-22T12:41:59;4;3;
69350;PMS7003;57106;51.446;-2.606;2023-12-22T12:44:24;2;2;
69350;PMS7003;57106;51.446;-2.606;2023-12-22T12:46:49;2;2;
69350;PMS7003;57106;51.446;-2.606;2023-12-22T12:49:15;2;1;
69350;PMS7003;57106;51.446;-2.606;2023-12-22T12:51:41;2;2;
69350;PMS7003;57106;51.446;-2.606;2023-12-22T12:54:06;2;2;
69350;PMS7003;57106;51.446;-2.606;2023-12-22T12:56:36;3;1;
69350;PMS7003;57106;51.446;-2.606;2023-12-22T12:58:57;3;1;
69350;PMS7003;57106;51.446;-2.606;2023-12-22T13:01:22;4;1;
69350;PMS7003;57106;51.446;-2.606;2023-12-22T13:03:51;5;1;
69350;PMS7003;57106;51.446;-2.606;2023-12-22T13:06:13;4;3;
69350;PMS7003;57106;51.446;-2.606;2023-12-22T13:08:39;1;1;
69350;PMS7003;57106;51.446;-2.606;2023-12-22T13:11:04;1;1;
69350;PMS7003;57106;51.446;-2.606;2023-12-22T13:13:30;1;1;
69350;PMS7003;57106;51.446;-2.606;2023-12-22T13:15:55;1;1;
69350;PMS7003;57106;51.446;-2.606;2023-12-22T13:18:21;4;2;
69350;PMS7003;57106;51.446;-2.606;2023-12-22T13:20:46;2;1;
69350;PMS7003;57106;51.446;-2.606;2023-12-22T13:23:12;1;1;
69350;PMS7003;57106;51.446;-2.606;2023-12-22T13:25:38;2;2;
69350;PMS7003;57106;51.446;-2.606;2023-12-22T13:28:03;2;1;
69350;PMS7003;57106;51.446;-2.606;2023-12-22T13:30:32;3;2;
69350;PMS7003;57106;51.446;-2.606;2023-12-22T13:32:54;1;0;
69350;PMS7003;57106;51.446;-2.606;2023-12-22T13:35:22;1;1;
69350;PMS7003;57106;51.446;-2.606;2023-12-22T13:37:45;1;1;
69350;PMS7003;57106;51.446;-2.606;2023-12-22T13:40:11;1;0;
69350;PMS7003;57106;51.446;-2.606;2023-12-22T13:42:36;2;1;
69350;PMS7003;57106;51.446;-2.606;2023-12-22T13:45:01;2;1;
69350;PMS7003;57106;51.446;-2.606;2023-12-22T13:47:27;3;1;
69350;PMS7003;57106;51.446;-2.606;2023-12-22T13:49:52;3;1;
69350;PMS7003;57106;51.446;-2.606;2023-12-22T13:52:24;2;0;
69350;PMS7003;57106;51.446;-2.606;2023-12-22T13:54:43;1;1;
69350;PMS7003;57106;51.446;-2.606;2023-12-22T13:59:34;1;1;
69350;PMS7003;57106;51.446;-2.606;2023-12-22T14:02:03;1;1;
69350;PMS7003;57106;51.446;-2.606;2023-12-22T14:04:25;2;1;
69350;PMS7003;57106;51.446;-2.606;2023-12-22T14:06:51;1;1;
69350;PMS7003;57106;51.446;-2.606;2023-12-22T14:11:42;2;1;
69350;PMS7003;57106;51.446;-2.606;2023-12-22T14:16:33;1;1;
69350;PMS7003;57106;51.446;-2.606;2023-12-22T14:18:59;1;1;
69350;PMS7003;57106;51.446;-2.606;2023-12-22T14:21:24;2;2;
69350;PMS7003;57106;51.446;-2.606;2023-12-22T14:23:50;1;1;
69350;PMS7003;57106;51.446;-2.606;2023-12-22T14:26:15;1;1;
69350;PMS7003;57106;51.446;-2.606;2023-12-22T14:28:41;3;2;
69350;PMS7003;57106;51.446;-2.606;2023-12-22T14:31:06;2;1;
69350;PMS7003;57106;51.446;-2.606;2023-12-22T14:33:32;3;1;
69350;PMS7003;57106;51.446;-2.606;2023-12-22T14:35:57;1;1;
69350;PMS7003;57106;51.446;-2.606;2023-12-22T14:38:28;1;0;
69350;PMS7003;57106;51.446;-2.606;2023-12-22T14:40:48;1;0;
69350;PMS7003;57106;51.446;-2.606;2023-12-22T14:43:14;1;0;
69350;PMS7003;57106;51.446;-2.606;2023-12-22T14:45:39;1;1;
69350;PMS7003;57106;51.446;-2.606;2023-12-22T14:48:05;1;1;
69350;PMS7003;57106;51.446;-2.606;2023-12-22T14:50:31;0;0;
69350;PMS7003;57106;51.446;-2.606;2023-12-22T14:52:58;0;0;
69350;PMS7003;57106;51.446;-2.606;2023-12-22T14:55:21;1;1;
69350;PMS7003;57106;51.446;-2.606;2023-12-22T14:57:47;1;1;
69350;PMS7003;57106;51.446;-2.606;2023-12-22T15:02:38;0;0;
69350;PMS7003;57106;51.446;-2.606;2023-12-22T15:05:04;0;0;
69350;PMS7003;57106;51.446;-2.606;2023-12-22T15:07:29;1;0;
69350;PMS7003;57106;51.446;-2.606;2023-12-22T15:09:54;0;0;
69350;PMS7003;57106;51.446;-2.606;2023-12-22T15:12:20;3;2;
69350;PMS7003;57106;51.446;-2.606;2023-12-22T15:14:46;1;0;
69350;PMS7003;57106;51.446;-2.606;2023-12-22T15:17:11;1;1;
69350;PMS7003;57106;51.446;-2.606;2023-12-22T15:19:39;0;0;
69350;PMS7003;57106;51.446;-2.606;2023-12-22T15:22:02;1;1;
69350;PMS7003;57106;51.446;-2.606;2023-12-22T15:24:28;0;0;
69350;PMS7003;57106;51.446;-2.606;2023-12-22T15:31:46;1;0;
69350;PMS7003;57106;51.446;-2.606;2023-12-22T15:34:10;0;0;
69350;PMS7003;57106;51.446;-2.606;2023-12-22T15:36:35;0;0;
69350;PMS7003;57106;51.446;-2.606;2023-12-22T15:39:01;0;0;
69350;PMS7003;57106;51.446;-2.606;2023-12-22T15:41:28;2;1;
69350;PMS7003;57106;51.446;-2.606;2023-12-22T15:43:52;0;0;
69350;PMS7003;57106;51.446;-2.606;2023-12-22T15:46:17;2;1;
69350;PMS7003;57106;51.446;-2.606;2023-12-22T15:48:43;0;0;
69350;PMS7003;57106;51.446;-2.606;2023-12-22T15:51:09;0;0;
69350;PMS7003;57106;51.446;-2.606;2023-12-22T15:53:34;1;1;
69350;PMS7003;57106;51.446;-2.606;2023-12-22T15:56:03;0;0;
69350;PMS7003;57106;51.446;-2.606;2023-12-22T15:58:25;1;0;
69350;PMS7003;57106;51.446;-2.606;2023-12-22T16:00:50;0;0;
69350;PMS7003;57106;51.446;-2.606;2023-12-22T16:03:16;3;0;
69350;PMS7003;57106;51.446;-2.606;2023-12-22T16:05:41;1;0;
69350;PMS7003;57106;51.446;-2.606;2023-12-22T16:08:08;3;1;
69350;PMS7003;57106;51.446;-2.606;2023-12-22T16:10:33;1;1;
69350;PMS7003;57106;51.446;-2.606;2023-12-22T16:12:58;10;9;
69350;PMS7003;57106;51.446;-2.606;2023-12-22T16:15:24;1;1;
69350;PMS7003;57106;51.446;-2.606;2023-12-22T16:17:49;4;4;
69350;PMS7003;57106;51.446;-2.606;2023-12-22T16:20:16;28;25;
69350;PMS7003;57106;51.446;-2.606;2023-12-22T16:22:40;87;78;
69350;PMS7003;57106;51.446;-2.606;2023-12-22T16:25:06;47;44;
69350;PMS7003;57106;51.446;-2.606;2023-12-22T16:27:31;20;18;
69350;PMS7003;57106;51.446;-2.606;2023-12-22T16:29:57;0;0;
69350;PMS7003;57106;51.446;-2.606;2023-12-22T16:32:23;0;0;
69350;PMS7003;57106;51.446;-2.606;2023-12-22T16:34:48;0;0;
69350;PMS7003;57106;51.446;-2.606;2023-12-22T16:37:13;1;1;
69350;PMS7003;57106;51.446;-2.606;2023-12-22T16:44:31;6;5;
69350;PMS7003;57106;51.446;-2.606;2023-12-22T16:46:55;2;1;
69350;PMS7003;57106;51.446;-2.606;2023-12-22T16:49:21;2;1;
69350;PMS7003;57106;51.446;-2.606;2023-12-22T16:51:46;5;5;
69350;PMS7003;57106;51.446;-2.606;2023-12-22T16:54:12;1;1;
69350;PMS7003;57106;51.446;-2.606;2023-12-22T16:56:37;3;0;
69350;PMS7003;57106;51.446;-2.606;2023-12-22T16:59:03;0;0;
69350;PMS7003;57106;51.446;-2.606;2023-12-22T17:01:28;2;2;
69350;PMS7003;57106;51.446;-2.606;2023-12-22T17:03:54;3;2;
69350;PMS7003;57106;51.446;-2.606;2023-12-22T17:06:19;1;1;
69350;PMS7003;57106;51.446;-2.606;2023-12-22T17:08:45;7;6;
69350;PMS7003;57106;51.446;-2.606;2023-12-22T17:11:10;5;5;
69350;PMS7003;57106;51.446;-2.606;2023-12-22T17:13:36;9;6;
69350;PMS7003;57106;51.446;-2.606;2023-12-22T17:16:02;5;5;
69350;PMS7003;57106;51.446;-2.606;2023-12-22T17:18:27;5;2;
69350;PMS7003;57106;51.446;-2.606;2023-12-22T17:20:53;4;4;
69350;PMS7003;57106;51.446;-2.606;2023-12-22T17:23:18;2;2;
69350;PMS7003;57106;51.446;-2.606;2023-12-22T17:25:44;5;3;
69350;PMS7003;57106;51.446;-2.606;2023-12-22T17:28:09;16;10;
69350;PMS7003;57106;51.446;-2.606;2023-12-22T17:30:35;6;5;
69350;PMS7003;57106;51.446;-2.606;2023-12-22T17:33:01;13;12;
69350;PMS7003;57106;51.446;-2.606;2023-12-22T17:35:26;2;1;
69350;PMS7003;57106;51.446;-2.606;2023-12-22T17:37:51;6;6;
69350;PMS7003;57106;51.446;-2.606;2023-12-22T17:40:17;8;8;
69350;PMS7003;57106;51.446;-2.606;2023-12-22T17:42:42;8;8;
69350;PMS7003;57106;51.446;-2.606;2023-12-22T17:45:08;8;7;
69350;PMS7003;57106;51.446;-2.606;2023-12-22T17:47:34;2;2;
69350;PMS7003;57106;51.446;-2.606;2023-12-22T17:49:59;6;3;
69350;PMS7003;57106;51.446;-2.606;2023-12-22T17:52:25;4;4;
69350;PMS7003;57106;51.446;-2.606;2023-12-22T17:59:42;2;2;
69350;PMS7003;57106;51.446;-2.606;2023-12-22T18:02:07;3;2;
69350;PMS7003;57106;51.446;-2.606;2023-12-22T18:04:37;2;2;
69350;PMS7003;57106;51.446;-2.606;2023-12-22T18:07:00;2;2;
69350;PMS7003;57106;51.446;-2.606;2023-12-22T18:09:24;4;3;
69350;PMS7003;57106;51.446;-2.606;2023-12-22T18:11:54;6;4;
69350;PMS7003;57106;51.446;-2.606;2023-12-22T18:14:14;4;3;
69350;PMS7003;57106;51.446;-2.606;2023-12-22T18:16:40;4;3;
69350;PMS7003;57106;51.446;-2.606;2023-12-22T18:19:05;1;1;
69350;PMS7003;57106;51.446;-2.606;2023-12-22T18:21:36;3;2;
69350;PMS7003;57106;51.446;-2.606;2023-12-22T18:23:56;2;1;
69350;PMS7003;57106;51.446;-2.606;2023-12-22T18:26:23;3;3;
69350;PMS7003;57106;51.446;-2.606;2023-12-22T18:28:48;3;3;
69350;PMS7003;57106;51.446;-2.606;2023-12-22T18:33:40;1;1;
69350;PMS7003;57106;51.446;-2.606;2023-12-22T18:36:04;5;5;
69350;PMS7003;57106;51.446;-2.606;2023-12-22T18:38:31;3;3;
69350;PMS7003;57106;51.446;-2.606;2023-12-22T18:40:55;1;1;
69350;PMS7003;57106;51.446;-2.606;2023-12-22T18:43:21;6;2;
69350;PMS7003;57106;51.446;-2.606;2023-12-22T18:45:46;3;2;
69350;PMS7003;57106;51.446;-2.606;2023-12-22T18:48:12;4;1;
69350;PMS7003;57106;51.446;-2.606;2023-12-22T18:50:38;3;2;
69350;PMS7003;57106;51.446;-2.606;2023-12-22T18:53:03;4;1;
69350;PMS7003;57106;51.446;-2.606;2023-12-22T18:55:29;2;2;
69350;PMS7003;57106;51.446;-2.606;2023-12-22T18:57:54;1;1;
69350;PMS7003;57106;51.446;-2.606;2023-12-22T19:00:20;4;2;
69350;PMS7003;57106;51.446;-2.606;2023-12-22T19:02:45;3;2;
69350;PMS7003;57106;51.446;-2.606;2023-12-22T19:05:11;1;1;
69350;PMS7003;57106;51.446;-2.606;2023-12-22T19:07:37;3;2;
69350;PMS7003;57106;51.446;-2.606;2023-12-22T19:12:27;2;2;
69350;PMS7003;57106;51.446;-2.606;2023-12-22T19:17:19;2;1;
69350;PMS7003;57106;51.446;-2.606;2023-12-22T19:19:49;3;2;
69350;PMS7003;57106;51.446;-2.606;2023-12-22T19:22:09;2;1;
69350;PMS7003;57106;51.446;-2.606;2023-12-22T19:24:35;5;2;
69350;PMS7003;57106;51.446;-2.606;2023-12-22T19:29:26;1;1;
69350;PMS7003;57106;51.446;-2.606;2023-12-22T19:36:45;4;2;
69350;PMS7003;57106;51.446;-2.606;2023-12-22T19:39:08;6;4;
69350;PMS7003;57106;51.446;-2.606;2023-12-22T19:41:34;3;3;
69350;PMS7003;57106;51.446;-2.606;2023-12-22T19:43:59;5;4;
69350;PMS7003;57106;51.446;-2.606;2023-12-22T19:46:25;3;2;
69350;PMS7003;57106;51.446;-2.606;2023-12-22T19:48:50;3;3;
69350;PMS7003;57106;51.446;-2.606;2023-12-22T19:51:16;4;3;
69350;PMS7003;57106;51.446;-2.606;2023-12-22T19:53:41;3;3;
69350;PMS7003;57106;51.446;-2.606;2023-12-22T19:56:08;6;4;
69350;PMS7003;57106;51.446;-2.606;2023-12-22T19:58:32;4;4;
69350;PMS7003;57106;51.446;-2.606;2023-12-22T20:00:58;8;7;